createdAt,value
2018-02-20T00:00:30.299Z,88.07
2018-02-20T00:01:30.314Z,88.17
2018-02-20T00:02:30.290Z,88.37
2018-02-20T00:03:30.286Z,88.17
2018-02-20T00:04:30.284Z,88.27
2018-02-20T00:05:30.282Z,88.07
2018-02-20T00:06:30.278Z,88.27
2018-02-20T00:07:30.271Z,88.17
2018-02-20T00:08:30.271Z,88.37
2018-02-20T00:09:30.267Z,88.37
2018-02-20T00:10:30.265Z,88.17
2018-02-20T00:11:30.265Z,88.07
2018-02-20T00:12:30.257Z,88.07
2018-02-20T00:13:30.253Z,88.17
2018-02-20T00:14:30.251Z,88.95
2018-02-20T00:15:30.246Z,89.04
2018-02-20T00:16:30.241Z,89.43
2018-02-20T00:17:30.238Z,89.53
2018-02-20T00:18:30.234Z,89.92
2018-02-20T00:19:30.230Z,89.97
2018-02-20T00:20:30.227Z,90.26
2018-02-20T00:21:30.245Z,89.87
2018-02-20T00:22:30.222Z,90.26
2018-02-20T00:23:30.215Z,90.06
2018-02-20T00:24:30.216Z,89.97
2018-02-20T00:25:30.211Z,90.45
2018-02-20T00:26:30.207Z,90.45
2018-02-20T00:27:30.200Z,90.74
2018-02-20T00:28:30.199Z,90.55
2018-02-20T00:29:30.196Z,90.64
2018-02-20T00:30:30.190Z,91.03
2018-02-20T00:31:30.189Z,90.94
2018-02-20T00:32:30.182Z,90.74
2018-02-20T00:33:30.181Z,91.03
2018-02-20T00:34:30.182Z,91.42
2018-02-20T00:35:30.172Z,91.52
2018-02-20T00:36:30.168Z,91.32
2018-02-20T00:37:30.163Z,91.90
2018-02-20T00:38:30.160Z,92.19
2018-02-20T00:39:30.157Z,92.19
2018-02-20T00:40:30.154Z,92.49
2018-02-20T00:41:30.148Z,92.87
2018-02-20T00:42:30.144Z,92.58
2018-02-20T00:43:30.139Z,92.19
2018-02-20T00:44:30.136Z,92.87
2018-02-20T00:45:30.132Z,92.58
2018-02-20T00:46:30.129Z,92.39
2018-02-20T00:47:30.124Z,92.87
2018-02-20T00:48:30.122Z,92.68
2018-02-20T00:49:30.118Z,92.77
2018-02-20T00:50:30.114Z,93.07
2018-02-20T00:51:30.110Z,93.26
2018-02-20T00:52:30.106Z,93.26
2018-02-20T00:53:30.103Z,93.16
2018-02-20T00:54:30.098Z,92.97
2018-02-20T00:55:30.095Z,93.16
2018-02-20T00:56:30.091Z,93.26
2018-02-20T00:57:30.087Z,93.16
2018-02-20T00:58:30.083Z,93.12
2018-02-20T00:59:30.079Z,93.02
2018-02-20T01:00:30.076Z,93.41
2018-02-20T01:01:30.075Z,93.60
2018-02-20T01:02:30.068Z,93.21
2018-02-20T01:03:30.068Z,93.94
2018-02-20T01:04:30.060Z,93.94
2018-02-20T01:05:30.068Z,94.23
2018-02-20T01:06:30.053Z,93.89
2018-02-20T01:07:30.048Z,94.37
2018-02-20T01:08:30.045Z,93.89
2018-02-20T01:09:30.045Z,94.28
2018-02-20T01:10:30.039Z,95.05
2018-02-20T01:11:30.033Z,94.96
2018-02-20T01:12:30.030Z,95.44
2018-02-20T01:13:30.028Z,94.67
2018-02-20T01:14:30.022Z,95.05
2018-02-20T01:15:30.023Z,95.25
2018-02-20T01:16:30.016Z,95.54
2018-02-20T01:17:30.016Z,96.12
2018-02-20T01:18:30.007Z,95.92
2018-02-20T01:19:30.009Z,95.83
2018-02-20T01:20:30.000Z,95.92
2018-02-20T01:21:30.007Z,95.92
2018-02-20T01:22:29.993Z,96.12
2018-02-20T01:23:30.004Z,95.83
2018-02-20T01:24:29.985Z,96.80
2018-02-20T01:25:29.980Z,96.31
2018-02-20T01:26:29.977Z,96.80
2018-02-20T01:27:29.972Z,96.31
2018-02-20T01:28:29.969Z,95.54
2018-02-20T01:29:29.966Z,96.41
2018-02-20T01:30:29.964Z,95.83
2018-02-20T01:31:29.956Z,96.41
2018-02-20T01:32:29.952Z,96.50
2018-02-20T01:33:29.953Z,96.41
2018-02-20T01:34:29.945Z,96.41
2018-02-20T01:35:29.941Z,96.22
2018-02-20T01:36:29.936Z,96.12
2018-02-20T01:37:29.933Z,96.41
2018-02-20T01:38:29.929Z,96.60
2018-02-20T01:39:29.924Z,96.60
2018-02-20T01:40:29.921Z,97.38
2018-02-20T01:41:29.917Z,97.38
2018-02-20T01:42:29.913Z,97.38
2018-02-20T01:43:29.910Z,97.28
2018-02-20T01:44:29.905Z,97.08
2018-02-20T01:45:29.901Z,97.28
2018-02-20T01:46:29.898Z,97.47
2018-02-20T01:47:29.893Z,97.38
2018-02-20T01:48:29.889Z,97.28
2018-02-20T01:49:29.886Z,97.47
2018-02-20T01:50:29.881Z,97.86
2018-02-20T01:51:29.877Z,97.67
2018-02-20T01:52:29.873Z,97.67
2018-02-20T01:53:29.869Z,98.35
2018-02-20T01:54:29.867Z,98.25
2018-02-20T01:55:29.861Z,98.73
2018-02-20T01:56:29.857Z,98.35
2018-02-20T01:57:29.853Z,99.02
2018-02-20T01:58:29.849Z,98.73
2018-02-20T01:59:29.845Z,98.54
2018-02-20T02:00:29.841Z,98.54
2018-02-20T02:01:29.837Z,98.93
2018-02-20T02:02:29.838Z,98.44
2018-02-20T02:03:29.829Z,98.63
2018-02-20T02:04:29.827Z,98.83
2018-02-20T02:05:29.822Z,98.93
2018-02-20T02:06:29.819Z,99.26
2018-02-20T02:07:29.813Z,98.97
2018-02-20T02:08:29.810Z,99.36
2018-02-20T02:09:29.811Z,99.99
2018-02-20T02:10:29.802Z,99.74
2018-02-20T02:11:29.797Z,99.99
2018-02-20T02:12:29.793Z,99.74
2018-02-20T02:13:29.788Z,99.84
2018-02-20T02:14:29.785Z,99.94
2018-02-20T02:15:29.781Z,99.99
2018-02-20T02:16:29.776Z,99.99
2018-02-20T02:17:29.772Z,99.99
2018-02-20T02:18:29.768Z,99.46
2018-02-20T02:19:29.764Z,99.74
2018-02-20T02:20:29.762Z,99.99
2018-02-20T02:21:29.756Z,99.99
2018-02-20T02:22:29.751Z,99.84
2018-02-20T02:23:29.746Z,99.84
2018-02-20T02:24:29.746Z,99.74
2018-02-20T02:25:29.738Z,99.99
2018-02-20T02:26:29.734Z,99.65
2018-02-20T02:27:29.729Z,99.94
2018-02-20T02:28:29.725Z,99.99
2018-02-20T02:29:29.722Z,99.94
2018-02-20T02:30:29.718Z,99.74
2018-02-20T02:31:29.713Z,99.65
2018-02-20T02:32:29.719Z,99.55
2018-02-20T02:33:29.706Z,99.74
2018-02-20T02:34:29.701Z,99.74
2018-02-20T02:35:29.697Z,99.46
2018-02-20T02:36:29.694Z,99.94
2018-02-20T02:37:29.688Z,99.99
2018-02-20T02:38:29.684Z,99.74
2018-02-20T02:39:29.680Z,99.99
2018-02-20T02:40:29.680Z,99.84
2018-02-20T02:41:29.673Z,99.65
2018-02-20T02:42:29.673Z,99.99
2018-02-20T02:43:29.663Z,99.16
2018-02-20T02:44:29.659Z,99.26
2018-02-20T02:45:29.660Z,99.36
2018-02-20T02:46:29.652Z,98.20
2018-02-20T02:47:29.646Z,98.68
2018-02-20T02:48:29.644Z,98.88
2018-02-20T02:49:29.643Z,98.68
2018-02-20T02:50:29.635Z,98.49
2018-02-20T02:51:29.635Z,98.39
2018-02-20T02:52:29.631Z,98.20
2018-02-20T02:53:29.622Z,98.10
2018-02-20T02:54:29.620Z,98.10
2018-02-20T02:55:29.614Z,98.00
2018-02-20T02:56:29.610Z,97.42
2018-02-20T02:57:29.611Z,98.00
2018-02-20T02:58:29.602Z,97.81
2018-02-20T02:59:29.595Z,98.00
2018-02-20T03:00:29.597Z,97.81
2018-02-20T03:01:29.588Z,97.72
2018-02-20T03:02:29.583Z,97.42
2018-02-20T03:03:29.578Z,97.91
2018-02-20T03:04:29.576Z,97.72
2018-02-20T03:05:29.571Z,97.81
2018-02-20T03:06:29.566Z,97.81
2018-02-20T03:07:29.561Z,98.00
2018-02-20T03:08:29.557Z,97.91
2018-02-20T03:09:29.558Z,97.33
2018-02-20T03:10:29.554Z,97.33
2018-02-20T03:11:29.544Z,97.04
2018-02-20T03:12:29.541Z,97.23
2018-02-20T03:13:29.541Z,97.23
2018-02-20T03:14:29.540Z,96.84
2018-02-20T03:15:29.532Z,97.04
2018-02-20T03:16:29.527Z,97.13
2018-02-20T03:17:29.520Z,97.33
2018-02-20T03:18:29.520Z,97.13
2018-02-20T03:19:29.511Z,97.42
2018-02-20T03:20:29.510Z,96.65
2018-02-20T03:21:29.507Z,96.65
2018-02-20T03:22:29.498Z,97.33
2018-02-20T03:23:29.493Z,97.23
2018-02-20T03:24:29.494Z,98.00
2018-02-20T03:25:29.490Z,97.72
2018-02-20T03:26:29.482Z,97.72
2018-02-20T03:27:29.481Z,97.81
2018-02-20T03:28:29.473Z,97.72
2018-02-20T03:29:29.469Z,97.81
2018-02-20T03:30:29.464Z,97.52
2018-02-20T03:31:29.461Z,98.00
2018-02-20T03:32:29.456Z,98.00
2018-02-20T03:33:29.452Z,98.58
2018-02-20T03:34:29.447Z,98.58
2018-02-20T03:35:29.443Z,98.39
2018-02-20T03:36:29.448Z,98.00
2018-02-20T03:37:29.435Z,98.39
2018-02-20T03:38:29.435Z,98.58
2018-02-20T03:39:29.426Z,98.58
2018-02-20T03:40:29.426Z,98.88
2018-02-20T03:41:29.418Z,98.58
2018-02-20T03:42:29.421Z,98.30
2018-02-20T03:43:29.409Z,98.10
2018-02-20T03:44:29.405Z,98.20
2018-02-20T03:45:29.401Z,98.39
2018-02-20T03:46:29.402Z,98.20
2018-02-20T03:47:29.394Z,98.39
2018-02-20T03:48:29.394Z,98.49
2018-02-20T03:49:29.385Z,98.00
2018-02-20T03:50:29.386Z,98.30
2018-02-20T03:51:29.381Z,98.30
2018-02-20T03:52:29.377Z,98.49
2018-02-20T03:53:29.373Z,97.42
2018-02-20T03:54:29.381Z,97.62
2018-02-20T03:55:29.383Z,97.72
2018-02-20T03:56:29.372Z,98.00
2018-02-20T03:57:29.352Z,97.33
2018-02-20T03:58:29.369Z,97.42
2018-02-20T03:59:29.360Z,96.94
2018-02-20T04:00:29.343Z,96.94
2018-02-20T04:01:29.335Z,96.94
2018-02-20T04:02:29.332Z,97.33
2018-02-20T04:03:29.326Z,97.04
2018-02-20T04:04:29.327Z,97.13
2018-02-20T04:05:29.322Z,97.28
2018-02-20T04:06:29.314Z,97.52
2018-02-20T04:07:29.309Z,97.28
2018-02-20T04:08:29.323Z,97.47
2018-02-20T04:09:29.301Z,97.67
2018-02-20T04:10:29.301Z,97.47
2018-02-20T04:11:29.292Z,97.86
2018-02-20T04:12:29.293Z,97.47
2018-02-20T04:13:29.287Z,97.77
2018-02-20T04:14:29.280Z,97.47
2018-02-20T04:15:29.280Z,98.25
2018-02-20T04:16:29.272Z,98.05
2018-02-20T04:17:29.284Z,98.35
2018-02-20T04:18:29.280Z,98.25
2018-02-20T04:19:29.261Z,98.15
2018-02-20T04:20:29.253Z,98.05
2018-02-20T04:21:29.250Z,98.15
2018-02-20T04:22:29.244Z,98.15
2018-02-20T04:23:29.299Z,98.54
2018-02-20T04:24:29.256Z,98.05
2018-02-20T04:25:29.238Z,98.25
2018-02-20T04:26:29.227Z,98.35
2018-02-20T04:27:29.226Z,98.25
2018-02-20T04:28:29.221Z,98.15
2018-02-20T04:29:29.213Z,98.83
2018-02-20T04:30:29.213Z,98.63
2018-02-20T04:31:29.208Z,98.44
2018-02-20T04:32:29.203Z,98.93
2018-02-20T04:33:29.199Z,98.83
2018-02-20T04:34:29.195Z,98.15
2018-02-20T04:35:29.189Z,98.44
2018-02-20T04:36:29.182Z,98.44
2018-02-20T04:37:29.176Z,98.63
2018-02-20T04:38:29.176Z,97.86
2018-02-20T04:39:29.167Z,98.05
2018-02-20T04:40:29.179Z,98.25
2018-02-20T04:41:29.158Z,98.05
2018-02-20T04:42:29.158Z,98.63
2018-02-20T04:43:29.149Z,98.25
2018-02-20T04:44:29.145Z,97.96
2018-02-20T04:45:29.145Z,98.35
2018-02-20T04:46:29.158Z,98.15
2018-02-20T04:47:29.135Z,98.54
2018-02-20T04:48:29.127Z,98.25
2018-02-20T04:49:29.140Z,98.05
2018-02-20T04:50:29.122Z,98.44
2018-02-20T04:51:29.117Z,98.15
2018-02-20T04:52:29.112Z,98.54
2018-02-20T04:53:29.105Z,98.35
2018-02-20T04:54:29.100Z,98.54
2018-02-20T04:55:29.099Z,98.54
2018-02-20T04:56:29.091Z,98.25
2018-02-20T04:57:29.086Z,98.73
2018-02-20T04:58:29.087Z,98.35
2018-02-20T04:59:29.077Z,98.73
2018-02-20T05:00:29.078Z,98.63
2018-02-20T05:01:29.069Z,98.54
2018-02-20T05:02:29.069Z,99.21
2018-02-20T05:03:29.059Z,99.21
2018-02-20T05:04:29.060Z,99.11
2018-02-20T05:05:29.055Z,99.21
2018-02-20T05:06:29.047Z,99.41
2018-02-20T05:07:29.046Z,99.41
2018-02-20T05:08:29.042Z,99.79
2018-02-20T05:09:29.037Z,99.21
2018-02-20T05:10:29.033Z,99.11
2018-02-20T05:11:29.028Z,99.41
2018-02-20T05:12:29.020Z,99.11
2018-02-20T05:13:29.015Z,99.31
2018-02-20T05:14:29.011Z,99.11
2018-02-20T05:15:29.011Z,99.51
2018-02-20T05:16:29.002Z,99.99
2018-02-20T05:17:29.002Z,99.99
2018-02-20T05:18:28.994Z,99.99
2018-02-20T05:19:28.992Z,99.99
2018-02-20T05:20:28.988Z,99.99
2018-02-20T05:21:28.981Z,99.99
2018-02-20T05:22:28.975Z,99.99
2018-02-20T05:23:28.970Z,99.99
2018-02-20T05:24:28.966Z,99.99
2018-02-20T05:25:28.960Z,99.99
2018-02-20T05:26:28.957Z,99.99
2018-02-20T05:27:28.952Z,99.99
2018-02-20T05:28:28.953Z,99.99
2018-02-20T05:29:28.944Z,99.99
2018-02-20T05:30:28.939Z,99.99
2018-02-20T05:31:28.935Z,99.99
2018-02-20T05:32:28.933Z,99.99
2018-02-20T05:33:28.926Z,99.99
2018-02-20T05:34:28.926Z,99.99
2018-02-20T05:35:28.917Z,99.99
2018-02-20T05:36:28.912Z,99.99
2018-02-20T05:37:28.903Z,99.99
2018-02-20T05:38:28.912Z,99.99
2018-02-20T05:39:28.900Z,99.99
2018-02-20T05:40:28.896Z,99.99
2018-02-20T05:41:28.896Z,99.99
2018-02-20T05:42:28.880Z,99.99
2018-02-20T05:43:28.877Z,99.99
2018-02-20T05:44:28.876Z,99.99
2018-02-20T05:45:28.869Z,99.99
2018-02-20T05:46:28.862Z,99.99
2018-02-20T05:47:28.892Z,99.99
2018-02-20T05:48:28.859Z,99.99
2018-02-20T05:49:28.849Z,99.99
2018-02-20T05:50:28.858Z,99.99
2018-02-20T05:51:28.858Z,99.99
2018-02-20T05:52:28.836Z,99.99
2018-02-20T05:53:28.836Z,99.99
2018-02-20T05:54:28.844Z,99.99
2018-02-20T05:55:28.827Z,99.99
2018-02-20T05:56:28.823Z,99.99
2018-02-20T05:57:28.818Z,99.99
2018-02-20T05:58:28.818Z,99.99
2018-02-20T05:59:28.812Z,99.99
2018-02-20T06:00:28.804Z,99.99
2018-02-20T06:01:28.803Z,99.99
2018-02-20T06:02:28.798Z,99.99
2018-02-20T06:03:28.800Z,99.99
2018-02-20T06:04:28.784Z,99.99
2018-02-20T06:05:28.786Z,99.99
2018-02-20T06:06:28.777Z,99.99
2018-02-20T06:07:28.770Z,99.99
2018-02-20T06:08:28.770Z,99.99
2018-02-20T06:09:28.761Z,99.99
2018-02-20T06:10:28.756Z,99.99
2018-02-20T06:11:28.751Z,99.99
2018-02-20T06:12:28.746Z,99.99
2018-02-20T06:13:28.742Z,99.99
2018-02-20T06:14:28.737Z,99.99
2018-02-20T06:15:28.731Z,99.99
2018-02-20T06:16:28.831Z,99.99
2018-02-20T06:17:28.721Z,99.99
2018-02-20T06:18:28.722Z,99.99
2018-02-20T06:19:28.715Z,99.99
2018-02-20T06:20:28.707Z,99.99
2018-02-20T06:21:28.751Z,99.99
2018-02-20T06:22:28.680Z,99.99
2018-02-20T06:23:28.691Z,99.99
2018-02-20T06:24:28.684Z,99.99
2018-02-20T06:25:28.686Z,99.99
2018-02-20T06:26:28.664Z,99.99
2018-02-20T06:27:28.675Z,99.99
2018-02-20T06:28:28.670Z,99.99
2018-02-20T06:29:28.656Z,99.99
2018-02-20T06:30:28.660Z,99.99
2018-02-20T06:31:28.633Z,99.99
2018-02-20T06:32:28.637Z,99.99
2018-02-20T06:33:28.622Z,99.99
2018-02-20T06:34:28.618Z,99.99
2018-02-20T06:35:28.616Z,99.99
2018-02-20T06:36:28.622Z,99.99
2018-02-20T06:37:28.620Z,99.99
2018-02-20T06:38:28.596Z,99.99
2018-02-20T06:39:28.609Z,99.99
2018-02-20T06:40:28.681Z,99.99
2018-02-20T06:41:28.590Z,99.99
2018-02-20T06:42:28.570Z,99.99
2018-02-20T06:43:28.583Z,99.99
2018-02-20T06:44:28.573Z,99.99
2018-02-20T06:45:28.573Z,99.99
2018-02-20T06:46:28.648Z,99.99
2018-02-20T06:47:28.541Z,99.99
2018-02-20T06:48:28.557Z,99.99
2018-02-20T06:49:28.546Z,99.99
2018-02-20T06:50:28.546Z,99.99
2018-02-20T06:51:28.525Z,99.99
2018-02-20T06:52:28.514Z,99.99
2018-02-20T06:53:28.510Z,99.99
2018-02-20T06:54:28.526Z,99.99
2018-02-20T06:55:28.508Z,99.99
2018-02-20T06:56:28.499Z,99.99
2018-02-20T06:57:28.494Z,99.99
2018-02-20T06:58:28.492Z,99.99
2018-02-20T06:59:28.497Z,99.99
2018-02-20T07:00:28.492Z,99.99
2018-02-20T07:01:28.487Z,99.99
2018-02-20T07:02:28.485Z,99.99
2018-02-20T07:03:28.479Z,99.99
2018-02-20T07:04:28.474Z,99.99
2018-02-20T07:05:28.458Z,99.99
2018-02-20T07:06:28.449Z,99.99
2018-02-20T07:07:28.442Z,99.99
2018-02-20T07:08:28.428Z,99.99
2018-02-20T07:09:28.433Z,99.99
2018-02-20T07:10:28.427Z,99.99
2018-02-20T07:11:28.415Z,99.99
2018-02-20T07:12:28.420Z,99.99
2018-02-20T07:13:28.424Z,99.99
2018-02-20T07:14:28.405Z,99.99
2018-02-20T07:15:28.412Z,99.99
2018-02-20T07:16:28.407Z,99.99
2018-02-20T07:17:28.387Z,99.99
2018-02-20T07:18:28.393Z,99.99
2018-02-20T07:19:28.386Z,99.99
2018-02-20T07:20:28.385Z,99.99
2018-02-20T07:21:28.370Z,99.99
2018-02-20T07:22:28.369Z,99.99
2018-02-20T07:23:28.368Z,99.99
2018-02-20T07:24:28.347Z,99.99
2018-02-20T07:25:28.356Z,99.99
2018-02-20T07:26:28.341Z,99.99
2018-02-20T07:27:28.336Z,99.99
2018-02-20T07:28:28.316Z,99.99
2018-02-20T07:29:28.320Z,99.99
2018-02-20T07:30:28.306Z,99.99
2018-02-20T07:31:28.299Z,99.99
2018-02-20T07:32:28.298Z,99.99
2018-02-20T07:33:28.308Z,99.99
2018-02-20T07:34:28.293Z,99.99
2018-02-20T07:35:28.276Z,99.99
2018-02-20T07:36:28.287Z,99.99
2018-02-20T07:37:28.291Z,99.99
2018-02-20T07:38:28.307Z,99.99
2018-02-20T07:39:28.264Z,99.99
2018-02-20T07:40:28.250Z,99.99
2018-02-20T07:41:28.270Z,99.99
2018-02-20T07:42:28.239Z,99.99
2018-02-20T07:43:28.242Z,99.99
2018-02-20T07:44:28.250Z,99.99
2018-02-20T07:45:28.239Z,99.99
2018-02-20T07:46:28.234Z,99.99
2018-02-20T07:47:28.212Z,99.99
2018-02-20T07:48:28.205Z,99.99
2018-02-20T07:49:28.218Z,99.99
2018-02-20T07:50:28.212Z,99.99
2018-02-20T07:51:28.208Z,99.99
2018-02-20T07:52:28.200Z,99.99
2018-02-20T07:53:28.195Z,99.99
2018-02-20T07:54:28.190Z,99.99
2018-02-20T07:55:28.167Z,99.99
2018-02-20T07:56:28.161Z,99.99
2018-02-20T07:57:28.173Z,99.99
2018-02-20T07:58:28.169Z,99.99
2018-02-20T07:59:28.145Z,99.99
2018-02-20T08:00:28.139Z,99.99
2018-02-20T08:01:28.134Z,99.99
2018-02-20T08:02:28.132Z,99.99
2018-02-20T08:03:28.122Z,99.99
2018-02-20T08:04:28.134Z,99.99
2018-02-20T08:05:28.132Z,99.99
2018-02-20T08:06:28.124Z,99.99
2018-02-20T08:07:28.115Z,99.99
2018-02-20T08:08:28.110Z,99.99
2018-02-20T08:09:28.108Z,99.99
2018-02-20T08:10:28.200Z,99.99
2018-02-20T08:11:28.095Z,99.99
2018-02-20T08:12:28.089Z,99.99
2018-02-20T08:13:28.084Z,99.99
2018-02-20T08:14:28.081Z,99.99
2018-02-20T08:15:28.071Z,99.99
2018-02-20T08:16:28.053Z,99.99
2018-02-20T08:17:28.086Z,99.99
2018-02-20T08:18:28.053Z,99.99
2018-02-20T08:19:28.036Z,99.99
2018-02-20T08:20:28.045Z,99.99
2018-02-20T08:21:28.039Z,99.99
2018-02-20T08:22:28.043Z,99.99
2018-02-20T08:23:28.014Z,99.99
2018-02-20T08:24:28.022Z,99.99
2018-02-20T08:25:28.002Z,99.99
2018-02-20T08:26:27.998Z,99.99
2018-02-20T08:27:28.006Z,99.99
2018-02-20T08:28:28.001Z,99.99
2018-02-20T08:29:27.995Z,99.99
2018-02-20T08:30:27.990Z,99.99
2018-02-20T08:31:27.968Z,99.99
2018-02-20T08:32:27.989Z,99.99
2018-02-20T08:33:27.962Z,99.99
2018-02-20T08:34:27.955Z,99.99
2018-02-20T08:35:27.971Z,99.99
2018-02-20T08:36:27.967Z,99.99
2018-02-20T08:37:27.951Z,99.99
2018-02-20T08:38:27.946Z,99.99
2018-02-20T08:39:27.939Z,99.99
2018-02-20T08:40:27.929Z,99.99
2018-02-20T08:41:27.913Z,99.99
2018-02-20T08:42:27.959Z,99.99
2018-02-20T08:43:27.902Z,99.99
2018-02-20T08:44:27.897Z,99.99
2018-02-20T08:45:27.891Z,99.99
2018-02-20T08:46:27.889Z,99.99
2018-02-20T08:47:27.889Z,99.99
2018-02-20T08:48:27.876Z,99.99
2018-02-20T08:49:27.870Z,99.99
2018-02-20T08:50:27.864Z,99.99
2018-02-20T08:51:27.858Z,99.99
2018-02-20T08:52:27.865Z,99.99
2018-02-20T08:53:27.847Z,99.99
2018-02-20T08:54:27.847Z,99.99
2018-02-20T08:55:27.835Z,99.99
2018-02-20T08:56:27.829Z,99.99
2018-02-20T08:57:27.824Z,99.99
2018-02-20T08:58:27.819Z,99.99
2018-02-20T08:59:27.812Z,99.99
2018-02-20T09:00:27.816Z,99.99
2018-02-20T09:01:27.803Z,99.99
2018-02-20T09:02:27.805Z,99.99
2018-02-20T09:03:27.790Z,99.99
2018-02-20T09:04:27.794Z,99.99
2018-02-20T09:05:27.788Z,99.99
2018-02-20T09:06:27.787Z,99.99
2018-02-20T09:07:27.776Z,99.99
2018-02-20T09:08:27.762Z,99.99
2018-02-20T09:09:27.770Z,99.99
2018-02-20T09:10:27.765Z,99.99
2018-02-20T09:11:27.745Z,99.99
2018-02-20T09:12:27.739Z,99.99
2018-02-20T09:13:27.734Z,99.99
2018-02-20T09:14:27.746Z,99.99
2018-02-20T09:15:27.723Z,99.99
2018-02-20T09:16:27.817Z,99.99
2018-02-20T09:17:27.726Z,99.99
2018-02-20T09:18:27.723Z,99.99
2018-02-20T09:19:27.714Z,99.99
2018-02-20T09:20:27.709Z,99.99
2018-02-20T09:21:27.705Z,99.99
2018-02-20T09:22:27.697Z,99.99
2018-02-20T09:23:27.701Z,99.99
2018-02-20T09:24:27.672Z,99.99
2018-02-20T09:25:27.680Z,99.99
2018-02-20T09:26:27.675Z,99.99
2018-02-20T09:27:27.669Z,99.99
2018-02-20T09:28:27.673Z,99.99
2018-02-20T09:29:27.658Z,99.99
2018-02-20T09:30:27.662Z,99.99
2018-02-20T09:31:27.645Z,99.99
2018-02-20T09:32:27.639Z,99.99
2018-02-20T09:33:27.635Z,99.99
2018-02-20T09:34:27.629Z,99.99
2018-02-20T09:35:27.622Z,99.99
2018-02-20T09:36:27.617Z,99.99
2018-02-20T09:37:27.616Z,99.99
2018-02-20T09:38:27.610Z,99.99
2018-02-20T09:39:27.600Z,99.99
2018-02-20T09:40:27.594Z,99.99
2018-02-20T09:41:27.598Z,99.99
2018-02-20T09:42:27.592Z,99.99
2018-02-20T09:43:27.576Z,99.99
2018-02-20T09:44:27.571Z,99.99
2018-02-20T09:45:27.565Z,99.99
2018-02-20T09:46:27.569Z,99.99
2018-02-20T09:47:27.556Z,99.99
2018-02-20T09:48:27.548Z,99.99
2018-02-20T09:49:27.543Z,99.99
2018-02-20T09:50:27.537Z,99.99
2018-02-20T09:51:27.542Z,99.99
2018-02-20T09:52:27.535Z,99.99
2018-02-20T09:53:27.529Z,99.99
2018-02-20T09:54:27.514Z,99.99
2018-02-20T09:55:27.510Z,99.99
2018-02-20T09:56:27.515Z,99.99
2018-02-20T09:57:27.499Z,99.99
2018-02-20T09:58:27.491Z,99.99
2018-02-20T09:59:27.488Z,99.99
2018-02-20T10:00:27.483Z,99.99
2018-02-20T10:01:27.486Z,99.99
2018-02-20T10:02:27.473Z,99.99
2018-02-20T10:03:27.464Z,99.99
2018-02-20T10:04:27.459Z,99.99
2018-02-20T10:05:27.454Z,99.99
2018-02-20T10:06:27.453Z,99.99
2018-02-20T10:07:27.447Z,99.99
2018-02-20T10:08:27.436Z,99.99
2018-02-20T10:09:27.431Z,99.99
2018-02-20T10:10:27.426Z,99.99
2018-02-20T10:11:27.420Z,99.99
2018-02-20T10:12:27.414Z,99.99
2018-02-20T10:13:27.419Z,99.99
2018-02-20T10:14:27.405Z,99.99
2018-02-20T10:15:27.397Z,99.99
2018-02-20T10:16:27.498Z,99.99
2018-02-20T10:17:27.400Z,99.99
2018-02-20T10:18:27.387Z,99.99
2018-02-20T10:19:27.381Z,99.99
2018-02-20T10:20:27.371Z,99.99
2018-02-20T10:21:27.370Z,99.99
2018-02-20T10:22:27.365Z,99.99
2018-02-20T10:23:27.336Z,99.99
2018-02-20T10:24:27.336Z,99.99
2018-02-20T10:25:27.352Z,99.99
2018-02-20T10:26:27.347Z,99.99
2018-02-20T10:27:27.319Z,99.99
2018-02-20T10:28:27.332Z,99.99
2018-02-20T10:29:27.304Z,99.99
2018-02-20T10:30:27.309Z,99.99
2018-02-20T10:31:27.298Z,99.99
2018-02-20T10:32:27.292Z,99.99
2018-02-20T10:33:27.283Z,99.99
2018-02-20T10:34:27.277Z,99.99
2018-02-20T10:35:27.276Z,99.99
2018-02-20T10:36:27.271Z,99.99
2018-02-20T10:37:27.287Z,99.99
2018-02-20T10:38:27.265Z,99.99
2018-02-20T10:39:27.255Z,99.99
2018-02-20T10:40:27.270Z,99.99
2018-02-20T10:41:27.245Z,99.99
2018-02-20T10:42:27.251Z,99.99
2018-02-20T10:43:27.230Z,99.99
2018-02-20T10:44:27.245Z,99.99
2018-02-20T10:45:27.236Z,99.99
2018-02-20T10:46:27.231Z,99.99
2018-02-20T10:47:27.444Z,99.99
2018-02-20T10:48:27.202Z,99.99
2018-02-20T10:49:27.214Z,99.99
2018-02-20T10:50:27.194Z,99.99
2018-02-20T10:51:27.187Z,99.99
2018-02-20T10:52:27.199Z,99.99
2018-02-20T10:53:27.183Z,99.99
2018-02-20T10:54:27.172Z,99.99
2018-02-20T10:55:27.183Z,99.99
2018-02-20T10:56:27.183Z,99.99
2018-02-20T10:57:27.179Z,99.99
2018-02-20T10:58:27.168Z,99.99
2018-02-20T10:59:27.163Z,99.99
2018-02-20T11:00:27.159Z,99.99
2018-02-20T11:01:27.153Z,99.99
2018-02-20T11:02:27.149Z,99.99
2018-02-20T11:03:27.144Z,99.99
2018-02-20T11:04:27.148Z,99.99
2018-02-20T11:05:27.135Z,99.99
2018-02-20T11:06:27.130Z,99.99
2018-02-20T11:07:27.134Z,99.99
2018-02-20T11:08:27.129Z,99.99
2018-02-20T11:09:27.118Z,99.99
2018-02-20T11:10:27.113Z,99.99
2018-02-20T11:11:27.114Z,99.99
2018-02-20T11:12:27.107Z,99.99
2018-02-20T11:13:27.105Z,99.99
2018-02-20T11:14:27.100Z,99.99
2018-02-20T11:15:27.095Z,99.99
2018-02-20T11:16:27.087Z,99.99
2018-02-20T11:17:27.075Z,99.99
2018-02-20T11:18:27.077Z,99.99
2018-02-20T11:19:27.072Z,99.94
2018-02-20T11:20:27.071Z,99.99
2018-02-20T11:21:27.218Z,99.26
2018-02-20T11:22:27.054Z,99.26
2018-02-20T11:23:27.051Z,98.97
2018-02-20T11:24:27.052Z,98.97
2018-02-20T11:25:27.038Z,98.88
2018-02-20T11:26:27.043Z,99.21
2018-02-20T11:27:27.036Z,99.74
2018-02-20T11:28:27.028Z,99.55
2018-02-20T11:29:27.027Z,99.36
2018-02-20T11:30:27.023Z,98.78
2018-02-20T11:31:27.024Z,98.49
2018-02-20T11:32:27.013Z,98.58
2018-02-20T11:33:27.014Z,98.39
2018-02-20T11:34:27.002Z,98.68
2018-02-20T11:35:26.997Z,98.30
2018-02-20T11:36:26.998Z,98.49
2018-02-20T11:37:26.991Z,97.91
2018-02-20T11:38:26.993Z,98.00
2018-02-20T11:39:26.984Z,98.68
2018-02-20T11:40:26.977Z,98.30
2018-02-20T11:41:26.970Z,98.49
2018-02-20T11:42:26.972Z,98.58
2018-02-20T11:43:26.969Z,98.68
2018-02-20T11:44:26.957Z,98.49
2018-02-20T11:45:26.950Z,98.54
2018-02-20T11:46:26.939Z,98.97
2018-02-20T11:47:26.951Z,98.00
2018-02-20T11:48:26.930Z,98.68
2018-02-20T11:49:26.926Z,98.58
2018-02-20T11:50:26.938Z,98.00
2018-02-20T11:51:26.934Z,98.54
2018-02-20T11:52:26.926Z,98.54
2018-02-20T11:53:26.959Z,97.86
2018-02-20T11:54:26.900Z,96.22
2018-02-20T11:55:26.900Z,96.31
2018-02-20T11:56:26.913Z,96.70
2018-02-20T11:57:26.888Z,96.50
2018-02-20T11:58:26.905Z,96.12
2018-02-20T11:59:26.879Z,96.12
2018-02-20T12:00:26.892Z,96.02
2018-02-20T12:01:26.914Z,96.02
2018-02-20T12:02:26.871Z,94.67
2018-02-20T12:03:26.879Z,95.20
2018-02-20T12:04:26.877Z,95.20
2018-02-20T12:05:26.874Z,94.32
2018-02-20T12:06:26.870Z,93.94
2018-02-20T12:07:26.847Z,94.04
2018-02-20T12:08:26.843Z,93.84
2018-02-20T12:09:26.839Z,93.65
2018-02-20T12:10:26.838Z,93.55
2018-02-20T12:11:26.845Z,93.74
2018-02-20T12:12:26.844Z,92.39
2018-02-20T12:13:26.841Z,92.49
2018-02-20T12:14:26.837Z,92.39
2018-02-20T12:15:26.829Z,92.49
2018-02-20T12:16:26.815Z,92.29
2018-02-20T12:17:26.807Z,92.43
2018-02-20T12:18:26.822Z,92.82
2018-02-20T12:19:26.813Z,92.14
2018-02-20T12:20:26.816Z,91.41
2018-02-20T12:21:26.935Z,90.73
2018-02-20T12:22:26.807Z,91.12
2018-02-20T12:23:26.805Z,90.06
2018-02-20T12:24:26.898Z,90.16
2018-02-20T12:25:26.791Z,89.47
2018-02-20T12:26:26.791Z,89.37
2018-02-20T12:27:26.794Z,88.89
2018-02-20T12:28:26.783Z,88.31
2018-02-20T12:29:26.784Z,88.31
2018-02-20T12:30:26.780Z,88.99
2018-02-20T12:31:26.781Z,88.99
2018-02-20T12:32:26.770Z,88.99
2018-02-20T12:33:26.771Z,88.12
2018-02-20T12:34:26.763Z,88.26
2018-02-20T12:35:26.757Z,87.96
2018-02-20T12:36:26.750Z,88.06
2018-02-20T12:37:26.752Z,87.34
2018-02-20T12:38:26.742Z,87.54
2018-02-20T12:39:26.745Z,88.06
2018-02-20T12:40:26.743Z,86.90
2018-02-20T12:41:26.740Z,86.61
2018-02-20T12:42:26.732Z,86.51
2018-02-20T12:43:26.731Z,87.38
2018-02-20T12:44:26.729Z,86.90
2018-02-20T12:45:26.740Z,86.99
2018-02-20T12:46:26.727Z,87.19
2018-02-20T12:47:26.722Z,87.58
2018-02-20T12:48:26.722Z,87.19
2018-02-20T12:49:26.718Z,86.12
2018-02-20T12:50:26.724Z,86.80
2018-02-20T12:51:26.703Z,86.71
2018-02-20T12:52:26.705Z,86.90